Aérodrome :
LOGIN :

S'inscrire | Disclaimer

   EN    FR    IT 

 










Légende :    VFR   VFR Marginal   IFR   IFR Intensif   IFR Très Intensif
Visi : 
Plafond : 
>= 8 km
>= 3000ft
5 à 8 km
1000 à 3000 ft
1500m à 5 km
500 à 1000 ft
800 à 1500m
200 à 500 ft
< 800m
< 200 ft
Symboles :   Orages  Brouillard  Fortes neiges  Fortes précipitations  Vent > 20 kt
SIGMETs :   Divers  Orages  Givrage  Turbulence  Onde Orograph.  Cendres Volcan.







- Altitude de l'aérodrome : 1115 ft
- Code IATA : GRZ


LOWG - Graz

DERNIER METAR :
  • 262050Z 10002KT 9999 -SHRA FEW008 BKN070 09/08 Q1020 NOSIG

METARs EXPIRÉS :
  • 262020Z 20003KT 160V220 9999 SCT008 BKN070 09/08 Q1020 NOSIG
  • 261950Z 21003KT 180V260 9999 FEW007 BKN070 09/08 Q1019 NOSIG
  • 261920Z VRB01KT 9999 -RA FEW010 BKN070 09/08 Q1019 NOSIG
  • 261850Z VRB01KT 9999 RA FEW020 BKN055 09/07 Q1019 BECMG -RA
  • 261820Z 29003KT 240V330 9999 RA FEW020 BKN055 09/08 Q1018 BECMG -RA

TAF TAF LOWG
Valide du 26 à 18h jusqu'au 27 à 18h UTC


261715Z 2618/2718 31004KT 9999 -RA FEW030 BKN070 TX18/2715Z TN07/2702Z
TEMPO 2618/2619 36010KT 8000 RA BKN040
BECMG 2619/2621 NSW
TEMPO 2622/2707 4000 BR
PROB30
TEMPO 2700/2706 0500 BCFG BKN007
BECMG 2708/2710 17006KT SCT050 SCT300
Pas de NOTAMs connus pour ce terrain.



MET'MAP, la Météo Aéronautique d'un coup d'oeil ! - Copyright ORBIFLY Décembre 2007 - Disclaimer

ORBIFLY MET'MAP TEAM :

Programmation & Développement : Alexandra Zaïnal
Conception & Développement : Baudouin d'Aumeries
Co-Programmation & Développement : Marc-Olivier Méhu
Soutien technique & logistique : Manuel Goepfert

Contact : metmap@orbifly.com




SOURCES & CREDITS :

   NOAA